ADDS METAR Data INFO
IDs: Format: Raw Decoded Include TAF

Data at: 0207 UTC 14 Dec 2017

PANC 140153Z 15013G19KT 10SM FEW070 FEW110 07/00 A2959 RMK AO2 SLP023 T00670000
PANC 140053Z 15015G26KT 10SM FEW070 SCT110 07/00 A2957 RMK AO2 PK WND 15033/0002 SLP015 T00720000
PANC 132353Z COR 15020G31KT 10SM FEW070 FEW110 08/01 A2955 RMK AO2 PK WND 14033/2339 4/002 SLP007 T00780011 10078 20011 51014
PANC 132338Z 15019G31KT 10SM FEW070 FEW110 07/01 A2954 RMK AO2 PK WND 16031/2334 T00720011
PANC 132253Z 14004KT 10SM FEW070 FEW110 07/M01 A2954 RMK AO2 SLP003 T00721006
PANC 132153Z 33010G24KT 10SM FEW090 FEW110 03/M01 A2953 RMK AO2 SLP002 T00331006
PANC 132053Z 10SM FEW090 SCT110 03/M01 A2950 RMK AO2 SLP993 T00331006 50003
PANC 131953Z 32005KT 10SM FEW090 SCT110 02/M02 A2952 RMK AO2 SLP997 T00171017
PANC 131853Z 30007KT 10SM SCT090 BKN110 03/M02 A2951 RMK AO2 CIG 090 N SLP994 T00281017
PANC 131753Z 30007KT 10SM SCT060 OVC100 03/M02 A2950 RMK AO2 RAE17 CIG 060 N SLP990 4/002 P0000 60000 T00281017 10050 20011 56015
PANC 131653Z 27013KT 10SM -RA BKN060 OVC200 04/M02 A2952 RMK AO2 SLP997 P0000 T00441022
PANC 131553Z 31012KT 10SM -RA BKN055 BKN070 OVC200 03/M02 A2952 RMK AO2 SLP997 PCPN VRY LGT P0000 T00281022
PANC 131453Z 32011KT 10SM -RA BKN065 OVC200 02/M02 A2954 RMK AO2 SLP005 PCPN VRY LGT P0000 60000 T00221022 56042
PANC 131353Z 26009KT 10SM -RA BKN060 OVC200 02/M02 A2958 RMK AO2 RAB16 SLP019 P0000 T00171022
PANC 131253Z 30007KT 10SM SCT047 BKN065 OVC150 02/M02 A2961 RMK AO2 RAB13E48 SLP028 P0000 T00221022
PANC 131153Z 25006KT 10SM SCT065 BKN080 OVC210 02/M02 A2966 RMK AO2 SLP047 4/002 T00171022 10028 20011 58050
PANC 131053Z 02009KT 10SM SCT065 OVC250 02/M02 A2970 RMK AO2 SLP060 T00221017
PANC 130953Z 33005KT 10SM SCT065 OVC250 02/M02 A2980 RMK AO2 SLP093 T00221017
PANC 130853Z 31009KT 10SM FEW075 OVC250 02/M02 A2981 RMK AO2 SLP098 T00171017 400720000 58006
PANC 130753Z 31009KT 10SM FEW075 OVC210 02/M01 A2982 RMK AO2 SLP100 T00171011
PANC 130653Z 25007KT 10SM FEW120 OVC180 02/M01 A2984 RMK AO2 SLP107 T00171011
PANC 130553Z 33014KT 10SM FEW075 OVC180 02/M01 A2983 RMK AO2 PK WND 33026/0517 SLP104 4/002 T00221011 10072 20017 51013
PANC 130453Z 33014KT 10SM FEW070 BKN150 OVC200 02/M02 A2982 RMK AO2 SLP098 T00171022
PANC 130353Z 34008KT 10SM FEW070 BKN130 OVC200 02/M02 A2982 RMK AO2 SLP101 T00221022
PANC 130253Z 14009G19KT 110V170 10SM FEW075 BKN130 OVC200 07/01 A2980 RMK AO2 PK WND 15027/0220 SLP091 T00670006 50003
PANC 130153Z 34007KT 10SM FEW070 SCT110 OVC150 03/M02 A2980 RMK AO2 SLP095 VIRGA W-N T00281017
PANC 130053Z 16012G17KT 10SM SCT090 BKN110 OVC200 06/01 A2978 RMK AO2 SLP088 VIRGA ALQDS T00560006 $
PANC 122353Z 10005KT 10SM BKN110 BKN200 02/M01 A2979 RMK AO2 PK WND 15032/2257 SLP089 VIRGA ALQDS 4/002 T00221011 10056 20000 53006 $
PANC 122253Z 14017G28KT 10SM OVC110 06/00 A2977 RMK AO2 PK WND 17030/2225 SLP082 VIRGA ALQDS T00560000 $
PANC 122153Z 29006KT 10SM BKN110 BKN200 03/M01 A2978 RMK AO2 SLP086 VIRGA ALQDS T00281011 $
PANC 122053Z 00000KT 10SM FEW070 BKN170 02/M02 A2977 RMK AO2 SLP083 T00221017 51014 $
PANC 121953Z 36006KT 10SM FEW065 SCT200 02/M02 A2976 RMK AO2 SLP078 T00221017 $
PANC 121853Z VRB05KT 10SM FEW070 BKN200 04/M01 A2975 RMK AO2 SLP075 T00391006 $
PANC 121753Z 24007KT 10SM FEW070 BKN200 01/M02 A2973 RMK AO2 SLP068 4/002 T00111017 10033 20006 53012 $
PANC 121653Z VRB03KT 10SM FEW070 FEW120 OVC150 01/M01 A2970 RMK AO2 SLP059 T00111011 $
PANC 121553Z 26006KT 10SM FEW070 FEW120 OVC150 01/M02 A2970 RMK AO2 SLP057 T00111017 $
PANC 121453Z 33003KT 10SM FEW070 OVC100 01/M01 A2969 RMK AO2 SLP056 T00111011 52004 $